Terminal Aerodrome Forecast
Issued by NWS

Home | Current Version | Previous Version | Text Only | Print | Product List | Glossary On
Versions: 1 2 3 4 5 6 7 8 9 10 11 12 13 14 15
000
FTUS46 KMTR 162300
TAFSJC
TAF
KSJC 162320Z 1700/1724 30012KT P6SM SKC
     FM170300 30007KT P6SM SKC
     FM170900 VRB03KT P6SM SKC
     FM171300 VRB03KT P6SM SCT012
      TEMPO 1714/1717 BKN012
     FM171800 31011KT P6SM FEW012=

USA.gov is the U.S. government's official web portal to all federal, state and local government web resources and services.